Time;durP1;ratioP1;P1;durP2;ratioP2;P2;SDS_P1;SDS_P2;PMS_P1;PMS_P2;Temp;Humidity;BMP_temperature;BMP_pressure;BME280_temperature;BME280_humidity;BME280_pressure;Samples;Min_cycle;Max_cycle;Signal;HPM_P1;HPM_P2
2021/06/21 00:00:56;;;;;;;8.77;2.53;;;16.90;99.90;;;;;;5104195;28;20191;-48
2021/06/21 00:03:23;;;;;;;4.60;2.60;;;16.80;99.90;;;;;;5101862;28;20216;-48
2021/06/21 00:05:50;;;;;;;3.67;2.30;;;16.80;99.90;;;;;;5102984;28;20188;-48
2021/06/21 00:08:16;;;;;;;4.97;2.60;;;16.70;99.90;;;;;;5103026;27;20205;-48
2021/06/21 00:10:43;;;;;;;7.10;2.53;;;16.70;99.90;;;;;;5112894;27;20871;-46
2021/06/21 00:13:11;;;;;;;4.10;2.37;;;16.60;99.90;;;;;;5119309;27;20216;-48
2021/06/21 00:15:38;;;;;;;5.23;2.60;;;16.60;99.90;;;;;;5121227;27;20267;-46
2021/06/21 00:18:06;;;;;;;5.30;2.87;;;16.60;99.90;;;;;;5124910;27;20188;-47
2021/06/21 00:20:33;;;;;;;8.77;2.80;;;16.50;99.90;;;;;;5119247;27;20269;-49
2021/06/21 00:23:00;;;;;;;7.90;2.30;;;16.50;99.90;;;;;;5106190;27;20562;-49
2021/06/21 00:25:26;;;;;;;3.23;2.80;;;16.50;99.90;;;;;;5104783;27;20201;-47
2021/06/21 00:27:53;;;;;;;4.77;2.70;;;16.50;99.90;;;;;;5104035;28;20194;-46
2021/06/21 00:30:22;;;;;;;3.97;3.07;;;16.40;99.90;;;;;;5101504;28;20222;-48
2021/06/21 00:32:49;;;;;;;5.77;2.50;;;16.40;99.90;;;;;;5102508;27;20959;-46
2021/06/21 00:35:18;;;;;;;4.00;2.70;;;16.30;99.90;;;;;;5102619;28;20194;-48
2021/06/21 00:37:46;;;;;;;5.13;3.27;;;16.30;99.90;;;;;;5100527;27;20798;-47
2021/06/21 00:40:15;;;;;;;6.57;3.00;;;16.30;99.90;;;;;;5122058;27;20201;-49
2021/06/21 00:42:47;;;;;;;3.93;2.40;;;16.30;99.90;;;;;;5100491;27;20224;-47
2021/06/21 00:45:16;;;;;;;4.60;3.10;;;16.30;99.90;;;;;;5122971;27;20192;-48
2021/06/21 00:47:43;;;;;;;6.87;2.60;;;16.20;99.90;;;;;;5121836;27;20201;-51
2021/06/21 00:50:11;;;;;;;6.53;2.80;;;16.20;99.90;;;;;;5121501;27;20231;-47
2021/06/21 00:52:39;;;;;;;5.30;2.90;;;16.20;99.90;;;;;;5105157;27;20254;-47
2021/06/21 00:55:08;;;;;;;6.30;3.47;;;16.20;99.90;;;;;;5122667;27;20196;-48
2021/06/21 00:57:37;;;;;;;4.63;3.00;;;16.20;99.90;;;;;;5102634;27;20204;-49
2021/06/21 01:00:09;;;;;;;5.27;3.00;;;16.10;99.90;;;;;;5102356;28;20729;-48
2021/06/21 01:02:36;;;;;;;7.77;2.90;;;16.10;99.90;;;;;;5099332;28;20214;-47
2021/06/21 01:05:05;;;;;;;4.93;2.90;;;16.10;99.90;;;;;;5119787;27;20216;-48
2021/06/21 01:07:32;;;;;;;3.97;3.30;;;16.10;99.90;;;;;;5104790;27;20214;-47
2021/06/21 01:10:00;;;;;;;8.90;3.37;;;16.10;99.90;;;;;;5123556;27;20912;-46
2021/06/21 01:12:38;;;;;;;6.90;3.23;;;16.10;99.90;;;;;;5094347;27;20718;-49
2021/06/21 01:15:08;;;;;;;6.17;3.10;;;16.10;99.90;;;;;;5103421;28;20182;-49
2021/06/21 01:17:39;;;;;;;6.70;2.77;;;16.00;99.90;;;;;;5099191;28;20192;-47
2021/06/21 01:20:44;;;;;;;7.73;3.30;;;15.90;99.90;;;;;;5102625;28;20190;-47
2021/06/21 01:24:01;;;;;;;5.57;2.90;;;16.00;99.90;;;;;;5099088;27;20224;-50
2021/06/21 01:26:35;;;;;;;3.93;3.13;;;15.90;99.90;;;;;;5036805;28;20209;-47
2021/06/21 01:29:23;;;;;;;7.30;3.30;;;15.80;99.90;;;;;;5097127;27;20295;-49
2021/06/21 01:31:52;;;;;;;7.20;3.73;;;15.70;99.90;;;;;;5101807;28;20219;-47
2021/06/21 01:34:24;;;;;;;5.33;3.00;;;15.70;99.90;;;;;;5111665;27;20192;-47
2021/06/21 01:36:55;;;;;;;3.83;3.00;;;15.70;99.90;;;;;;5122226;28;20207;-48
2021/06/21 01:39:22;;;;;;;5.57;3.80;;;15.70;99.90;;;;;;5104406;28;20208;-51
2021/06/21 01:41:52;;;;;;;5.57;2.93;;;15.60;99.90;;;;;;5122325;27;21138;-46
2021/06/21 01:44:20;;;;;;;6.93;3.63;;;15.60;99.90;;;;;;5098450;28;20221;-52
2021/06/21 01:46:51;;;;;;;7.63;3.63;;;15.60;99.90;;;;;;5101292;28;20183;-48
2021/06/21 01:49:22;;;;;;;3.73;3.37;;;15.60;99.90;;;;;;5100691;28;20213;-51
2021/06/21 01:51:54;;;;;;;5.77;4.27;;;15.60;99.90;;;;;;5101721;28;20213;-52
2021/06/21 01:54:25;;;;;;;5.73;3.40;;;15.60;99.90;;;;;;5097356;28;20562;-52
2021/06/21 01:56:53;;;;;;;5.37;3.57;;;15.60;99.90;;;;;;5119763;28;20205;-48
2021/06/21 01:59:20;;;;;;;8.07;4.07;;;15.60;99.90;;;;;;5111438;28;20219;-51
2021/06/21 02:01:48;;;;;;;7.07;4.00;;;15.60;99.90;;;;;;5121620;28;20205;-52
2021/06/21 02:04:16;;;;;;;8.57;4.30;;;15.60;99.90;;;;;;5122403;28;20212;-51
2021/06/21 02:06:46;;;;;;;4.93;4.00;;;15.60;99.90;;;;;;5120429;28;20905;-46
2021/06/21 02:09:14;;;;;;;9.37;4.20;;;15.60;99.90;;;;;;5122816;28;20544;-47
2021/06/21 02:11:41;;;;;;;6.63;3.93;;;15.50;99.90;;;;;;5104838;28;20346;-48
2021/06/21 02:14:08;;;;;;;6.17;4.40;;;15.50;99.90;;;;;;5123040;28;20192;-48
2021/06/21 02:16:35;;;;;;;8.23;3.93;;;15.60;99.90;;;;;;5093378;28;20193;-49
2021/06/21 02:19:02;;;;;;;7.40;3.90;;;15.50;99.90;;;;;;5101969;28;20254;-49
2021/06/21 02:21:29;;;;;;;6.20;4.10;;;15.50;99.90;;;;;;5098362;28;20209;-48
2021/06/21 02:23:58;;;;;;;6.07;4.30;;;15.50;99.90;;;;;;5101523;28;20216;-48
2021/06/21 02:26:26;;;;;;;7.33;4.10;;;15.50;99.90;;;;;;5105163;27;20201;-51
2021/06/21 02:28:54;;;;;;;7.27;4.60;;;15.60;99.90;;;;;;5122219;27;20203;-51
2021/06/21 02:31:21;;;;;;;9.50;4.40;;;15.50;99.90;;;;;;5105972;28;20209;-50
2021/06/21 02:33:48;;;;;;;9.17;4.43;;;15.50;99.90;;;;;;5103319;28;20189;-51
2021/06/21 02:36:15;;;;;;;10.10;4.40;;;15.50;99.90;;;;;;5122075;27;20188;-50
2021/06/21 02:38:41;;;;;;;5.97;4.60;;;15.50;99.90;;;;;;5119193;28;20177;-46
2021/06/21 02:41:09;;;;;;;4.70;4.23;;;15.50;99.90;;;;;;5123234;27;20197;-47
2021/06/21 02:43:36;;;;;;;7.03;4.07;;;15.50;99.90;;;;;;5107550;27;20924;-47
2021/06/21 02:46:03;;;;;;;6.40;4.07;;;15.50;99.90;;;;;;5113447;27;20543;-48
2021/06/21 02:48:30;;;;;;;5.77;4.57;;;15.40;99.90;;;;;;5101761;28;20209;-49
2021/06/21 02:50:57;;;;;;;6.17;4.13;;;15.40;99.90;;;;;;5105736;28;20189;-47
2021/06/21 02:53:32;;;;;;;7.53;4.77;;;15.30;99.90;;;;;;5102899;28;20708;-46
2021/06/21 02:56:07;;;;;;;8.23;5.00;;;15.30;99.90;;;;;;5106129;28;20976;-46
2021/06/21 02:58:38;;;;;;;8.17;5.37;;;15.30;99.90;;;;;;5105387;27;20199;-49
2021/06/21 03:01:07;;;;;;;8.03;4.53;;;15.20;99.90;;;;;;5125950;27;20199;-46
2021/06/21 03:03:38;;;;;;;6.43;4.80;;;15.20;99.90;;;;;;5113536;27;20189;-46
2021/06/21 03:06:06;;;;;;;6.40;5.23;;;15.20;99.90;;;;;;5124992;27;20275;-47
2021/06/21 03:08:34;;;;;;;9.27;5.17;;;15.10;99.90;;;;;;5122061;27;20184;-46
2021/06/21 03:11:02;;;;;;;6.30;4.37;;;15.10;99.90;;;;;;5125748;27;20204;-47
2021/06/21 03:13:28;;;;;;;9.33;5.53;;;15.10;99.90;;;;;;5103747;27;20225;-47
2021/06/21 03:15:59;;;;;;;5.40;4.63;;;15.10;99.90;;;;;;5125783;27;20737;-46
2021/06/21 03:18:26;;;;;;;6.00;5.50;;;15.10;99.90;;;;;;5098127;27;20201;-49
2021/06/21 03:20:54;;;;;;;7.47;6.23;;;15.10;99.90;;;;;;5104496;28;20663;-47
2021/06/21 03:23:23;;;;;;;8.17;5.23;;;15.10;99.90;;;;;;5100858;28;20217;-48
2021/06/21 03:25:52;;;;;;;9.30;6.33;;;15.10;99.90;;;;;;5100417;28;20209;-48
2021/06/21 03:28:19;;;;;;;11.37;5.60;;;15.00;99.90;;;;;;5087648;27;20216;-46
2021/06/21 03:30:49;;;;;;;8.83;6.57;;;15.10;99.90;;;;;;5117510;27;20211;-46
2021/06/21 03:33:17;;;;;;;6.80;6.20;;;15.00;99.90;;;;;;5093735;27;20225;-47
2021/06/21 03:35:44;;;;;;;8.00;6.13;;;15.00;99.90;;;;;;5099276;27;20192;-47
2021/06/21 03:38:13;;;;;;;10.13;5.40;;;15.00;99.90;;;;;;5118391;27;20670;-49
2021/06/21 03:40:39;;;;;;;6.63;5.33;;;15.10;99.90;;;;;;5112838;27;20202;-46
2021/06/21 03:43:06;;;;;;;8.80;6.47;;;15.10;99.90;;;;;;5115714;27;20601;-52
2021/06/21 03:45:33;;;;;;;7.97;5.93;;;15.00;99.90;;;;;;5102337;27;20864;-50
2021/06/21 03:48:00;;;;;;;8.67;5.73;;;15.00;99.90;;;;;;5101376;27;20205;-47
2021/06/21 03:50:28;;;;;;;7.13;5.70;;;15.00;99.90;;;;;;5113188;27;20193;-49
2021/06/21 03:52:55;;;;;;;7.00;5.20;;;15.00;99.90;;;;;;5117695;27;20213;-46
2021/06/21 03:55:22;;;;;;;11.53;5.57;;;15.00;99.90;;;;;;5112894;27;20200;-47
2021/06/21 03:57:50;;;;;;;6.80;5.20;;;15.00;99.90;;;;;;5112115;27;20185;-46
2021/06/21 04:00:20;;;;;;;10.23;5.57;;;14.90;99.90;;;;;;5097646;27;20233;-51
2021/06/21 04:02:47;;;;;;;5.90;5.33;;;14.90;99.90;;;;;;5116805;27;20228;-48
2021/06/21 04:05:14;;;;;;;6.47;5.87;;;14.90;99.90;;;;;;5117854;27;20761;-50
2021/06/21 04:07:42;;;;;;;6.37;5.57;;;14.90;99.90;;;;;;5121907;27;20180;-46
2021/06/21 04:10:12;;;;;;;10.60;5.27;;;14.90;99.90;;;;;;5132202;27;20191;-46
2021/06/21 04:12:39;;;;;;;10.47;6.13;;;14.90;99.90;;;;;;5112059;27;22620;-46
2021/06/21 04:15:08;;;;;;;9.23;5.93;;;14.90;99.90;;;;;;5092955;27;20205;-48
2021/06/21 04:17:36;;;;;;;7.53;5.73;;;15.00;99.90;;;;;;5114882;27;20204;-46
2021/06/21 04:20:03;;;;;;;5.90;5.30;;;14.90;99.90;;;;;;5102239;27;20236;-49
2021/06/21 04:22:30;;;;;;;7.63;6.10;;;14.90;99.90;;;;;;5101977;27;20212;-48
2021/06/21 04:24:58;;;;;;;12.03;5.50;;;14.90;99.90;;;;;;5122234;27;20222;-47
2021/06/21 04:27:24;;;;;;;11.03;5.77;;;14.90;99.90;;;;;;5122525;27;20191;-52
2021/06/21 04:29:51;;;;;;;9.33;5.43;;;14.90;99.90;;;;;;5130486;27;20200;-45
2021/06/21 04:32:18;;;;;;;9.43;5.53;;;14.90;99.90;;;;;;5113804;27;20727;-47
2021/06/21 04:34:45;;;;;;;8.17;5.37;;;14.90;99.90;;;;;;5105792;27;20208;-46
2021/06/21 04:37:11;;;;;;;7.53;6.53;;;14.90;99.90;;;;;;5133752;27;20199;-50
2021/06/21 04:39:38;;;;;;;6.27;5.13;;;15.00;99.90;;;;;;5126832;27;20219;-46
2021/06/21 04:42:06;;;;;;;6.00;5.40;;;14.90;99.90;;;;;;5118090;27;20229;-46
2021/06/21 04:44:34;;;;;;;6.13;5.50;;;14.90;99.90;;;;;;5119951;27;21066;-45
2021/06/21 04:47:00;;;;;;;5.87;5.23;;;15.00;99.90;;;;;;5093184;27;20211;-47
2021/06/21 04:49:27;;;;;;;5.10;4.50;;;15.00;99.90;;;;;;5108628;27;20204;-50
2021/06/21 04:51:53;;;;;;;5.87;5.10;;;14.90;99.90;;;;;;5105648;27;20236;-50
2021/06/21 04:54:20;;;;;;;6.87;4.60;;;14.90;99.90;;;;;;5100274;27;20211;-48
2021/06/21 04:56:47;;;;;;;4.83;4.40;;;14.90;99.90;;;;;;5113906;27;20283;-45
2021/06/21 04:59:15;;;;;;;4.60;4.17;;;14.90;99.90;;;;;;5114991;27;20209;-50
2021/06/21 05:01:42;;;;;;;5.07;3.67;;;14.90;99.90;;;;;;5111668;27;20220;-47
2021/06/21 05:04:09;;;;;;;6.10;4.23;;;14.90;99.90;;;;;;5105564;27;20209;-48
2021/06/21 05:06:36;;;;;;;8.93;4.70;;;14.90;99.90;;;;;;5099604;27;20216;-46
2021/06/21 05:09:03;;;;;;;3.90;3.60;;;14.90;99.90;;;;;;5098880;27;20662;-47
2021/06/21 05:11:30;;;;;;;4.40;3.73;;;15.00;99.90;;;;;;5097026;27;20235;-45
2021/06/21 05:13:57;;;;;;;3.90;3.43;;;15.00;99.90;;;;;;5096682;27;20716;-47
2021/06/21 05:16:25;;;;;;;3.77;3.47;;;15.00;99.90;;;;;;5105695;27;21867;-46
2021/06/21 05:18:52;;;;;;;3.40;3.13;;;15.00;99.90;;;;;;5106519;27;20220;-47
2021/06/21 05:21:18;;;;;;;4.47;2.90;;;15.10;99.90;;;;;;5117613;27;20197;-50
2021/06/21 05:23:45;;;;;;;3.40;3.10;;;15.10;99.90;;;;;;5105822;27;20248;-49
2021/06/21 05:26:12;;;;;;;4.07;3.30;;;15.10;99.90;;;;;;5103499;27;20247;-52
2021/06/21 05:28:39;;;;;;;3.70;2.87;;;15.00;99.90;;;;;;5105478;27;20197;-48
2021/06/21 05:31:06;;;;;;;3.20;2.60;;;15.10;99.90;;;;;;5110252;27;20983;-47
2021/06/21 05:33:34;;;;;;;3.57;3.27;;;15.00;99.90;;;;;;5113326;27;20245;-46
2021/06/21 05:36:01;;;;;;;5.03;3.40;;;15.10;99.90;;;;;;5093057;27;20554;-49
2021/06/21 05:38:27;;;;;;;3.90;3.50;;;15.10;99.90;;;;;;5112197;27;20200;-48
2021/06/21 05:40:54;;;;;;;4.63;2.93;;;15.00;99.90;;;;;;5116392;27;20192;-48
2021/06/21 05:43:20;;;;;;;4.37;2.80;;;15.10;99.90;;;;;;5111557;27;21033;-50
2021/06/21 05:45:47;;;;;;;3.47;3.20;;;15.10;99.90;;;;;;5111697;27;20314;-59
2021/06/21 05:48:14;;;;;;;3.90;2.87;;;15.10;99.90;;;;;;5123445;27;20409;-65
2021/06/21 05:50:42;;;;;;;4.47;2.70;;;15.10;99.90;;;;;;5102762;27;20790;-45
2021/06/21 05:53:09;;;;;;;2.83;2.53;;;15.20;99.90;;;;;;5094020;27;20236;-47
2021/06/21 05:55:36;;;;;;;3.23;2.83;;;15.10;99.90;;;;;;5109995;27;20196;-46
2021/06/21 05:58:02;;;;;;;3.83;2.80;;;15.10;99.90;;;;;;5106550;27;21009;-52
2021/06/21 06:00:29;;;;;;;7.40;2.83;;;15.10;99.90;;;;;;5101212;27;20991;-49
2021/06/21 06:02:56;;;;;;;3.03;2.60;;;15.10;99.90;;;;;;5119520;27;20216;-47
2021/06/21 06:05:22;;;;;;;2.77;2.50;;;15.10;99.90;;;;;;5087907;27;20224;-46
2021/06/21 06:07:50;;;;;;;2.47;2.03;;;15.20;99.90;;;;;;5112460;27;20197;-51
2021/06/21 06:10:17;;;;;;;2.70;2.50;;;15.20;99.90;;;;;;5090273;27;20767;-51
2021/06/21 06:12:44;;;;;;;2.80;2.33;;;15.20;99.90;;;;;;5102376;28;20217;-47
2021/06/21 06:15:12;;;;;;;5.73;2.73;;;15.20;99.90;;;;;;5109239;28;20205;-48
2021/06/21 06:17:39;;;;;;;2.50;2.37;;;15.20;99.90;;;;;;5120132;27;20199;-47
2021/06/21 06:20:07;;;;;;;2.93;2.57;;;15.20;99.90;;;;;;5104733;27;20201;-49
2021/06/21 06:22:34;;;;;;;2.00;1.90;;;15.20;99.90;;;;;;5099812;27;20213;-51
2021/06/21 06:25:02;;;;;;;2.40;2.20;;;15.30;99.90;;;;;;5102668;27;20235;-50
2021/06/21 06:27:29;;;;;;;2.97;2.13;;;15.20;99.90;;;;;;5117451;27;20188;-48
2021/06/21 06:29:56;;;;;;;4.60;2.13;;;15.20;99.90;;;;;;5116811;27;20205;-49
2021/06/21 06:32:22;;;;;;;3.57;2.10;;;15.30;99.90;;;;;;5109519;27;20242;-47
2021/06/21 06:34:49;;;;;;;2.33;2.13;;;15.30;99.90;;;;;;5114988;27;20207;-47
2021/06/21 06:37:16;;;;;;;2.23;1.60;;;15.20;99.90;;;;;;5107114;27;20215;-50
2021/06/21 06:39:43;;;;;;;3.63;1.80;;;15.20;99.90;;;;;;5099569;27;20201;-48
2021/06/21 06:42:11;;;;;;;2.30;2.00;;;15.30;99.90;;;;;;5114964;27;20213;-49
2021/06/21 06:44:38;;;;;;;2.03;1.93;;;15.30;99.90;;;;;;5120224;27;20189;-50
2021/06/21 06:47:05;;;;;;;3.33;1.90;;;15.30;99.90;;;;;;5102519;27;20201;-48
2021/06/21 06:49:32;;;;;;;2.00;1.90;;;15.30;99.90;;;;;;5139881;27;20727;-51
2021/06/21 06:51:58;;;;;;;3.33;2.00;;;15.30;99.90;;;;;;5103935;27;20224;-47
2021/06/21 06:54:28;;;;;;;2.57;1.70;;;15.30;99.90;;;;;;5120496;27;20567;-48
2021/06/21 06:57:00;;;;;;;3.07;1.83;;;15.30;99.90;;;;;;5114827;27;20196;-49
2021/06/21 06:59:30;;;;;;;2.10;2.00;;;15.30;99.90;;;;;;5121369;27;20653;-51
2021/06/21 07:01:58;;;;;;;2.13;2.03;;;15.30;99.90;;;;;;5090946;27;21764;-50
2021/06/21 07:04:25;;;;;;;2.10;2.00;;;15.30;99.90;;;;;;5137805;27;20202;-50
2021/06/21 07:06:52;;;;;;;2.57;2.43;;;15.40;99.90;;;;;;5135154;27;20223;-48
2021/06/21 07:09:19;;;;;;;2.47;2.00;;;15.40;99.90;;;;;;5116117;27;20211;-48
2021/06/21 07:11:48;;;;;;;2.23;1.87;;;15.50;99.90;;;;;;5103893;27;20724;-48
2021/06/21 07:14:15;;;;;;;2.97;1.93;;;15.50;99.90;;;;;;5111321;27;20204;-47
2021/06/21 07:16:43;;;;;;;2.43;1.87;;;15.40;99.90;;;;;;5107397;27;20193;-52
2021/06/21 07:19:09;;;;;;;2.93;1.77;;;15.40;99.90;;;;;;5099272;27;20194;-48
2021/06/21 07:21:36;;;;;;;2.17;2.07;;;15.40;99.90;;;;;;5134907;27;20311;-51
2021/06/21 07:24:03;;;;;;;2.10;1.93;;;15.40;99.90;;;;;;5105248;27;20208;-50
2021/06/21 07:26:30;;;;;;;4.20;2.23;;;15.40;99.90;;;;;;5113162;27;20232;-53
2021/06/21 07:28:57;;;;;;;2.40;2.00;;;15.40;99.90;;;;;;5122336;27;20562;-52
2021/06/21 07:31:23;;;;;;;2.80;1.80;;;15.40;99.90;;;;;;5117748;27;20193;-50
2021/06/21 07:33:51;;;;;;;3.73;1.90;;;15.50;99.90;;;;;;5115315;27;20204;-49
2021/06/21 07:36:18;;;;;;;2.00;1.90;;;15.50;99.90;;;;;;5118083;27;20894;-53
2021/06/21 07:38:45;;;;;;;2.57;2.20;;;15.50;99.90;;;;;;5117961;27;20192;-47
2021/06/21 07:41:11;;;;;;;2.03;1.83;;;15.50;99.90;;;;;;5099571;27;20232;-51
2021/06/21 07:43:38;;;;;;;1.90;1.80;;;15.50;99.90;;;;;;5119103;27;20614;-49
2021/06/21 07:46:06;;;;;;;3.60;1.70;;;15.60;99.90;;;;;;5119075;27;20212;-52
2021/06/21 07:48:35;;;;;;;4.83;1.93;;;15.50;99.90;;;;;;5107308;27;20201;-48
2021/06/21 07:51:05;;;;;;;3.00;1.37;;;15.50;99.90;;;;;;5117623;27;20215;-49
2021/06/21 07:53:31;;;;;;;2.00;1.57;;;15.50;99.90;;;;;;5123353;27;21054;-48
2021/06/21 07:55:58;;;;;;;3.53;1.60;;;15.50;99.90;;;;;;5103819;27;20200;-51
2021/06/21 07:58:25;;;;;;;4.73;1.63;;;15.40;99.90;;;;;;5110463;27;20403;-51
2021/06/21 08:00:51;;;;;;;2.20;1.40;;;15.50;99.90;;;;;;5105849;27;20192;-51
2021/06/21 08:03:18;;;;;;;1.27;1.23;;;15.50;99.90;;;;;;5107761;27;20223;-53
2021/06/21 08:05:49;;;;;;;1.63;1.10;;;15.50;99.90;;;;;;5119242;27;20214;-52
2021/06/21 08:08:17;;;;;;;1.97;1.50;;;15.50;99.90;;;;;;5138882;27;20190;-53
2021/06/21 08:10:44;;;;;;;1.43;1.33;;;15.50;99.90;;;;;;5118285;27;20208;-49
2021/06/21 08:13:11;;;;;;;1.37;1.20;;;15.50;99.90;;;;;;5106288;27;20219;-48
2021/06/21 08:15:38;;;;;;;1.83;1.23;;;15.40;99.90;;;;;;5123256;27;20200;-48
2021/06/21 08:18:05;;;;;;;1.47;1.37;;;15.40;99.90;;;;;;5127699;27;20196;-50
2021/06/21 08:20:33;;;;;;;1.53;1.20;;;15.40;99.90;;;;;;5116769;27;20197;-49
2021/06/21 08:23:00;;;;;;;2.03;1.00;;;15.40;99.90;;;;;;5118937;27;20715;-50
2021/06/21 08:25:28;;;;;;;2.20;1.10;;;15.40;99.90;;;;;;5122345;27;20195;-47
2021/06/21 08:27:55;;;;;;;1.40;1.30;;;15.40;99.90;;;;;;5091528;27;20213;-47
2021/06/21 08:30:22;;;;;;;1.30;1.20;;;15.50;99.90;;;;;;5114229;27;20945;-48
2021/06/21 08:32:48;;;;;;;1.87;0.90;;;15.50;99.90;;;;;;5132339;27;20216;-49
2021/06/21 08:35:15;;;;;;;1.07;1.07;;;15.50;99.90;;;;;;5122725;27;20196;-48
2021/06/21 08:37:42;;;;;;;1.13;1.00;;;15.50;99.90;;;;;;5120995;27;20196;-50
2021/06/21 08:40:09;;;;;;;1.13;1.03;;;15.50;99.90;;;;;;5125371;27;20207;-49
2021/06/21 08:42:38;;;;;;;1.20;1.10;;;15.60;99.90;;;;;;5110741;27;20220;-47
2021/06/21 08:45:05;;;;;;;1.27;1.17;;;15.50;99.90;;;;;;5091199;27;20296;-48
2021/06/21 08:47:33;;;;;;;2.33;1.00;;;15.60;99.90;;;;;;5125827;27;20264;-49
2021/06/21 08:50:01;;;;;;;1.10;1.00;;;15.60;99.90;;;;;;5122860;27;20209;-49
2021/06/21 08:52:28;;;;;;;0.70;0.70;;;15.70;99.90;;;;;;5104445;27;20219;-47
2021/06/21 08:55:02;;;;;;;1.43;1.10;;;15.70;99.90;;;;;;5117431;27;20566;-51
2021/06/21 08:57:30;;;;;;;1.17;0.87;;;15.80;99.90;;;;;;5109762;27;22058;-47
2021/06/21 08:59:58;;;;;;;0.80;0.80;;;15.80;99.90;;;;;;5115002;27;20297;-51
2021/06/21 09:02:27;;;;;;;0.80;0.80;;;15.80;99.90;;;;;;5110902;27;20889;-51
2021/06/21 09:04:54;;;;;;;1.07;0.90;;;15.80;99.90;;;;;;5119943;27;20220;-50
2021/06/21 09:07:23;;;;;;;0.90;0.90;;;15.90;99.90;;;;;;5106458;27;20215;-47
2021/06/21 09:09:51;;;;;;;1.07;0.90;;;15.90;99.90;;;;;;5124582;27;20202;-47
2021/06/21 09:12:24;;;;;;;1.17;0.93;;;15.90;99.90;;;;;;5128732;27;20207;-51
2021/06/21 09:14:51;;;;;;;1.13;1.10;;;15.90;99.90;;;;;;5112163;27;20201;-51
2021/06/21 09:17:21;;;;;;;1.17;0.93;;;16.00;99.90;;;;;;5104934;27;20864;-47
2021/06/21 09:19:54;;;;;;;0.93;0.73;;;15.90;99.90;;;;;;5123386;27;20200;-48
2021/06/21 09:22:31;;;;;;;3.07;0.80;;;15.90;99.90;;;;;;5107001;27;21017;-48
2021/06/21 09:24:59;;;;;;;0.90;0.90;;;15.90;99.90;;;;;;5117010;27;20195;-48
2021/06/21 09:27:26;;;;;;;0.77;0.77;;;16.00;99.90;;;;;;5116213;27;20296;-50
2021/06/21 09:29:54;;;;;;;1.00;1.00;;;16.00;99.90;;;;;;5109298;27;20193;-49
2021/06/21 09:32:38;;;;;;;2.63;0.90;;;15.90;99.90;;;;;;5101287;27;20227;-47
2021/06/21 09:35:06;;;;;;;0.80;0.80;;;15.90;99.90;;;;;;5127485;27;20264;-50
2021/06/21 09:37:44;;;;;;;0.80;0.80;;;16.00;99.90;;;;;;5103650;27;20899;-50
2021/06/21 09:40:24;;;;;;;2.73;0.90;;;16.00;99.90;;;;;;5117985;28;20192;-48
2021/06/21 09:42:51;;;;;;;1.37;1.00;;;15.90;99.90;;;;;;5122059;27;20219;-50
2021/06/21 09:45:18;;;;;;;0.70;0.70;;;15.90;99.90;;;;;;5099465;28;20929;-48
2021/06/21 09:47:46;;;;;;;1.50;0.70;;;15.90;99.90;;;;;;5104232;27;20239;-46
2021/06/21 09:50:15;;;;;;;2.10;1.07;;;15.90;99.90;;;;;;5129736;27;20193;-46
2021/06/21 09:52:53;;;;;;;1.10;1.07;;;16.00;99.90;;;;;;5114223;27;20317;-51
2021/06/21 09:55:24;;;;;;;0.87;0.87;;;16.00;99.90;;;;;;5115864;27;20196;-48
2021/06/21 09:58:12;;;;;;;0.70;0.70;;;16.00;99.90;;;;;;5124100;27;20204;-53
2021/06/21 10:00:41;;;;;;;0.97;0.87;;;16.00;99.90;;;;;;5120085;27;20205;-54
2021/06/21 10:03:11;;;;;;;0.77;0.77;;;16.00;99.90;;;;;;5109865;27;20235;-51
2021/06/21 10:05:43;;;;;;;3.13;0.60;;;16.10;99.90;;;;;;5137162;27;20196;-52
2021/06/21 10:08:11;;;;;;;3.13;0.60;;;16.00;99.90;;;;;;5121988;27;20718;-52
2021/06/21 10:10:38;;;;;;;2.23;1.00;;;16.00;99.90;;;;;;5120462;27;20204;-49
2021/06/21 10:13:07;;;;;;;0.80;0.70;;;15.90;99.90;;;;;;5122838;27;20944;-48
2021/06/21 10:15:35;;;;;;;0.73;0.60;;;15.90;99.90;;;;;;5127233;27;20184;-50
2021/06/21 10:18:03;;;;;;;0.60;0.60;;;16.00;99.90;;;;;;5106830;27;20859;-49
2021/06/21 10:20:31;;;;;;;4.20;0.90;;;16.00;99.90;;;;;;5143283;27;20200;-49
2021/06/21 10:22:58;;;;;;;1.83;0.80;;;16.00;99.90;;;;;;5125093;27;20209;-52
2021/06/21 10:25:25;;;;;;;0.80;0.80;;;16.10;99.90;;;;;;5104511;27;20282;-50
2021/06/21 10:27:52;;;;;;;1.57;0.87;;;16.10;99.90;;;;;;5116604;27;20555;-51
2021/06/21 10:30:21;;;;;;;1.77;0.73;;;16.10;99.90;;;;;;5123839;27;20200;-49
2021/06/21 10:32:48;;;;;;;1.87;0.97;;;16.00;99.90;;;;;;5098353;27;20225;-54
2021/06/21 10:35:17;;;;;;;0.90;0.90;;;16.10;99.90;;;;;;5108543;27;20227;-49
2021/06/21 10:38:00;;;;;;;1.20;1.20;;;16.10;99.90;;;;;;5123323;27;20666;-52
2021/06/21 10:40:29;;;;;;;1.50;1.37;;;16.10;99.90;;;;;;5121757;27;20204;-51
2021/06/21 10:42:56;;;;;;;1.30;1.20;;;16.10;99.90;;;;;;5135881;27;20326;-50
2021/06/21 10:45:24;;;;;;;0.90;0.90;;;16.20;99.90;;;;;;5116390;27;20200;-49
2021/06/21 10:47:51;;;;;;;0.80;0.80;;;16.20;99.90;;;;;;5127132;27;20212;-50
2021/06/21 10:50:25;;;;;;;1.20;1.10;;;16.20;99.90;;;;;;5111131;27;20216;-53
2021/06/21 10:53:01;;;;;;;1.07;0.50;;;16.30;99.90;;;;;;5123705;27;20299;-54
2021/06/21 10:55:33;;;;;;;1.53;1.00;;;16.30;99.90;;;;;;5118159;27;20636;-47
2021/06/21 10:58:01;;;;;;;0.90;0.90;;;16.30;99.90;;;;;;5136618;27;20271;-47
2021/06/21 11:00:31;;;;;;;1.23;0.93;;;16.30;99.90;;;;;;5111680;27;20572;-49
2021/06/21 11:02:58;;;;;;;1.27;1.27;;;16.30;99.90;;;;;;5116954;27;20200;-49
2021/06/21 11:05:37;;;;;;;1.17;1.17;;;16.30;99.90;;;;;;5102224;27;20199;-47
2021/06/21 11:08:16;;;;;;;1.20;1.20;;;16.30;99.90;;;;;;5122719;27;20329;-49
2021/06/21 11:10:44;;;;;;;1.33;1.23;;;16.30;99.90;;;;;;5117674;27;20200;-48
2021/06/21 11:13:42;;;;;;;1.80;1.50;;;16.30;99.90;;;;;;5116862;27;20209;-50
2021/06/21 11:16:22;;;;;;;1.20;1.10;;;16.40;99.90;;;;;;5110303;27;20201;-51
2021/06/21 11:19:10;;;;;;;1.90;1.77;;;16.30;99.90;;;;;;5112422;27;20196;-48
2021/06/21 11:21:46;;;;;;;1.00;1.00;;;16.30;99.90;;;;;;5124186;27;20742;-52
2021/06/21 11:24:53;;;;;;;0.90;0.90;;;16.30;99.90;;;;;;5127276;27;20180;-48
2021/06/21 11:27:21;;;;;;;1.90;0.80;;;16.30;99.90;;;;;;5124959;27;20223;-49
2021/06/21 11:29:51;;;;;;;3.20;1.67;;;16.30;99.90;;;;;;5129335;27;20219;-50
2021/06/21 11:32:19;;;;;;;1.73;1.03;;;16.30;99.90;;;;;;5120466;27;20231;-52
2021/06/21 11:34:51;;;;;;;1.30;1.30;;;16.30;99.90;;;;;;5120069;27;20919;-49
2021/06/21 11:37:36;;;;;;;1.43;1.33;;;16.30;99.90;;;;;;5108220;27;20238;-48
2021/06/21 11:40:32;;;;;;;3.60;2.10;;;16.30;99.90;;;;;;5111851;27;20264;-46
2021/06/21 11:43:18;;;;;;;1.17;1.17;;;16.30;99.90;;;;;;5110027;27;20297;-45
2021/06/21 11:45:54;;;;;;;1.20;1.20;;;16.20;99.90;;;;;;5124009;27;20555;-50
2021/06/21 11:48:25;;;;;;;2.77;1.50;;;16.20;99.90;;;;;;5120763;27;20226;-50
2021/06/21 11:50:56;;;;;;;1.93;1.37;;;16.20;99.90;;;;;;5111852;27;20855;-48
2021/06/21 11:53:24;;;;;;;2.20;1.37;;;16.20;99.90;;;;;;5110447;27;20257;-45
2021/06/21 11:55:53;;;;;;;2.00;1.90;;;16.30;99.90;;;;;;5104637;27;20208;-44
2021/06/21 11:58:31;;;;;;;1.63;1.53;;;16.30;99.90;;;;;;5128125;27;20196;-47
2021/06/21 12:00:58;;;;;;;1.50;1.40;;;16.30;99.90;;;;;;5114429;27;20284;-47
2021/06/21 12:03:33;;;;;;;1.40;1.30;;;16.40;99.90;;;;;;5115477;27;20216;-47
2021/06/21 12:06:02;;;;;;;1.17;1.17;;;16.40;99.90;;;;;;5121551;27;20184;-49
2021/06/21 12:08:35;;;;;;;1.40;1.17;;;16.40;99.90;;;;;;5107669;27;20240;-50
2021/06/21 12:11:15;;;;;;;1.30;1.20;;;16.40;99.90;;;;;;5110744;27;20181;-47
2021/06/21 12:13:43;;;;;;;1.03;1.03;;;16.40;99.90;;;;;;5111807;27;20218;-50
2021/06/21 12:16:14;;;;;;;1.30;1.30;;;16.40;99.90;;;;;;5118307;27;20212;-45
2021/06/21 12:18:41;;;;;;;1.90;1.80;;;16.30;99.90;;;;;;5114783;27;20185;-48
2021/06/21 12:21:07;;;;;;;1.70;1.07;;;16.40;99.90;;;;;;5112830;27;20189;-49
2021/06/21 12:23:34;;;;;;;1.77;1.30;;;16.30;99.90;;;;;;5121402;27;20228;-51
2021/06/21 12:26:02;;;;;;;1.37;1.27;;;16.30;99.90;;;;;;5121551;27;20946;-46
2021/06/21 12:28:30;;;;;;;1.33;1.33;;;16.30;99.90;;;;;;5125623;27;20217;-48
2021/06/21 12:30:58;;;;;;;1.50;1.40;;;16.30;99.90;;;;;;5109917;27;20227;-46
2021/06/21 12:33:31;;;;;;;1.50;1.40;;;16.30;99.90;;;;;;5109145;27;20713;-45
2021/06/21 12:36:23;;;;;;;2.57;1.50;;;16.30;99.90;;;;;;5115001;27;20185;-49
2021/06/21 12:38:58;;;;;;;2.07;1.70;;;16.30;99.90;;;;;;5109125;27;20742;-47
2021/06/21 12:41:28;;;;;;;1.77;1.67;;;16.30;99.90;;;;;;5113143;27;20203;-48
2021/06/21 12:43:59;;;;;;;1.77;1.67;;;16.30;99.90;;;;;;5122793;27;20189;-48
2021/06/21 12:46:28;;;;;;;1.73;1.63;;;16.30;99.90;;;;;;5112018;27;20205;-49
2021/06/21 12:48:55;;;;;;;1.70;1.60;;;16.30;99.90;;;;;;5104851;27;20201;-46
2021/06/21 12:51:22;;;;;;;1.90;1.80;;;16.40;99.90;;;;;;5123119;27;20195;-46
2021/06/21 12:53:51;;;;;;;1.50;1.40;;;16.40;99.90;;;;;;5118842;27;20252;-47
2021/06/21 12:56:23;;;;;;;1.67;1.57;;;16.40;99.90;;;;;;5118488;27;20627;-48